createdAt,value
2023-01-13T00:00:13.363Z,99271.00
2023-01-13T00:02:47.103Z,99265.00
2023-01-13T00:05:20.988Z,99291.00
2023-01-13T00:07:54.992Z,99278.00
2023-01-13T00:10:28.578Z,99280.00
2023-01-13T00:13:05.445Z,99292.00
2023-01-13T00:15:39.334Z,99278.00
2023-01-13T00:18:13.136Z,99266.00
2023-01-13T00:20:46.632Z,99267.00
2023-01-13T00:23:20.004Z,99256.00
2023-01-13T00:25:56.878Z,99254.00
2023-01-13T00:28:31.903Z,99264.00
2023-01-13T00:31:10.492Z,99257.00
2023-01-13T00:33:44.624Z,99258.00
2023-01-13T00:36:22.930Z,99260.00
2023-01-13T00:38:56.659Z,99269.00
2023-01-13T00:41:50.467Z,99253.00
2023-01-13T00:44:24.376Z,99266.00
2023-01-13T00:46:58.079Z,99265.00
2023-01-13T00:49:31.830Z,99252.00
2023-01-13T00:52:05.696Z,99273.00
2023-01-13T00:54:39.420Z,99260.00
2023-01-13T00:57:13.191Z,99270.00
2023-01-13T00:59:49.614Z,99254.00
2023-01-13T01:02:23.257Z,99254.00
2023-01-13T01:04:56.918Z,99254.00
2023-01-13T01:07:30.445Z,99274.00
2023-01-13T01:10:04.414Z,99263.00
2023-01-13T01:12:38.206Z,99260.00
2023-01-13T01:15:14.300Z,99260.00
2023-01-13T01:17:48.046Z,99265.00
2023-01-13T01:20:22.012Z,99273.00
2023-01-13T01:22:55.824Z,99286.00
2023-01-13T01:25:30.326Z,99273.00
2023-01-13T01:28:03.919Z,99267.00
2023-01-13T01:30:40.823Z,99236.00
2023-01-13T01:33:15.119Z,99240.00
2023-01-13T01:35:49.227Z,99273.00
2023-01-13T01:38:23.452Z,99284.00
2023-01-13T01:40:57.441Z,99286.00
2023-01-13T01:44:03.101Z,99304.00
2023-01-13T01:46:40.949Z,99295.00
2023-01-13T01:49:22.082Z,99305.00
2023-01-13T01:52:03.458Z,99274.00
2023-01-13T01:54:45.832Z,99296.00
2023-01-13T01:57:25.807Z,99279.00
2023-01-13T02:00:01.767Z,99295.00
2023-01-13T02:02:38.575Z,99289.00
2023-01-13T02:05:13.045Z,99304.00
2023-01-13T02:07:50.358Z,99275.00
2023-01-13T02:10:28.571Z,99282.00
2023-01-13T02:13:07.928Z,99283.00
2023-01-13T02:15:54.706Z,99293.00
2023-01-13T02:18:45.954Z,99283.00
2023-01-13T02:21:45.120Z,99256.00
2023-01-13T02:25:05.184Z,99292.00
2023-01-13T02:27:55.923Z,99297.00
2023-01-13T02:31:00.794Z,99285.00
2023-01-13T02:33:51.449Z,99289.00
2023-01-13T02:36:34.260Z,99291.00
2023-01-13T02:39:16.396Z,99290.00
2023-01-13T02:42:15.331Z,99286.00
2023-01-13T02:44:57.129Z,99285.00
2023-01-13T02:47:37.259Z,99286.00
2023-01-13T02:50:17.447Z,99288.00
2023-01-13T02:52:56.502Z,99292.00
2023-01-13T02:55:36.414Z,99280.00
2023-01-13T02:58:16.466Z,99274.00
2023-01-13T03:00:52.198Z,99272.00
2023-01-13T03:03:27.636Z,99287.00
2023-01-13T03:06:20.822Z,99281.00
2023-01-13T03:09:02.212Z,99290.00
2023-01-13T03:11:47.201Z,99289.00
2023-01-13T03:14:36.891Z,99289.00
2023-01-13T03:17:24.607Z,99285.00
2023-01-13T03:20:08.732Z,99273.00
2023-01-13T03:22:53.513Z,99270.00
2023-01-13T03:25:32.893Z,99257.00
2023-01-13T03:28:12.291Z,99258.00
2023-01-13T03:30:51.463Z,99269.00
2023-01-13T03:33:32.525Z,99270.00
2023-01-13T03:36:14.427Z,99266.00
2023-01-13T03:38:55.580Z,99260.00
2023-01-13T03:41:36.986Z,99265.00
2023-01-13T03:44:25.304Z,99271.00
2023-01-13T03:47:12.567Z,99273.00
2023-01-13T03:49:54.357Z,99264.00
2023-01-13T03:52:36.113Z,99261.00
2023-01-13T03:55:15.599Z,99266.00
2023-01-13T03:57:58.954Z,99271.00
2023-01-13T04:00:40.134Z,99270.00
2023-01-13T04:03:24.856Z,99276.00
2023-01-13T04:06:15.517Z,99269.00
2023-01-13T04:08:58.062Z,99263.00
2023-01-13T04:11:38.823Z,99262.00
2023-01-13T04:14:15.105Z,99260.00
2023-01-13T06:55:38.212Z,99278.00
2023-01-13T06:58:15.811Z,99311.00
2023-01-13T07:00:51.924Z,99294.00
2023-01-13T07:03:30.604Z,99313.00
2023-01-13T07:06:05.234Z,99306.00
2023-01-13T07:08:41.705Z,99284.00
2023-01-13T07:11:16.896Z,99280.00
2023-01-13T07:14:08.517Z,99270.00
2023-01-13T07:16:44.753Z,99304.00
2023-01-13T07:19:23.380Z,99305.00
2023-01-13T07:21:57.445Z,99283.00
2023-01-13T07:24:31.546Z,99314.00
2023-01-13T07:27:07.372Z,99320.00
2023-01-13T07:29:41.374Z,99291.00
2023-01-13T07:32:16.436Z,99310.00
2023-01-13T07:34:50.981Z,99295.00
2023-01-13T07:37:25.161Z,99279.00
2023-01-13T07:39:58.929Z,99297.00
2023-01-13T07:42:51.235Z,99297.00
2023-01-13T07:45:43.179Z,99328.00
2023-01-13T07:48:23.286Z,99323.00
2023-01-13T07:51:05.413Z,99347.00
2023-01-13T07:53:42.119Z,99341.00
2023-01-13T07:56:37.905Z,99335.00
2023-01-13T07:59:39.981Z,99330.00
2023-01-13T08:02:15.284Z,99333.00
2023-01-13T08:04:50.426Z,99325.00
2023-01-13T08:07:41.745Z,99321.00
2023-01-13T08:10:16.415Z,99314.00
2023-01-13T08:13:08.021Z,99368.00
2023-01-13T08:18:35.204Z,99346.00
2023-01-13T08:21:16.510Z,99346.00
2023-01-13T08:23:53.008Z,99356.00
2023-01-13T08:26:33.478Z,99363.00
2023-01-13T08:29:08.333Z,99353.00
2023-01-13T08:31:44.917Z,99377.00
2023-01-13T08:34:19.684Z,99385.00
2023-01-13T08:36:55.368Z,99424.00
2023-01-13T08:39:33.967Z,99357.00
2023-01-13T08:42:08.165Z,99382.00
2023-01-13T08:44:43.557Z,99394.00
2023-01-13T08:47:19.324Z,99382.00
2023-01-13T08:49:55.160Z,99372.00
2023-01-13T08:52:32.008Z,99400.00
2023-01-13T08:55:08.676Z,99409.00
2023-01-13T09:00:54.663Z,99403.00
2023-01-13T09:03:45.753Z,99405.00
2023-01-13T09:06:40.841Z,99381.00
2023-01-13T09:09:16.257Z,99406.00
2023-01-13T09:12:11.310Z,99419.00
2023-01-13T09:14:46.962Z,99394.00
2023-01-13T09:17:24.298Z,99368.00
2023-01-13T09:29:49.780Z,99400.00
2023-01-13T09:32:37.688Z,99384.00
2023-01-13T09:35:27.312Z,99395.00
2023-01-13T09:38:16.154Z,99415.00
2023-01-13T09:48:38.626Z,99392.00
2023-01-13T10:07:20.668Z,99432.00
2023-01-13T10:10:01.122Z,99425.00
2023-01-13T10:12:53.391Z,99437.00
2023-01-13T10:15:29.004Z,99429.00
2023-01-13T10:25:47.286Z,99441.00
2023-01-13T10:34:17.842Z,99436.00
2023-01-13T10:37:21.488Z,99433.00
2023-01-13T10:52:48.563Z,99439.00
2023-01-13T11:09:00.445Z,99447.00
2023-01-13T11:11:48.006Z,99405.00
2023-01-13T11:14:40.022Z,99448.00
2023-01-13T11:20:46.089Z,99441.00
2023-01-13T11:23:27.660Z,99453.00
2023-01-13T11:29:10.786Z,99461.00
2023-01-13T11:35:01.840Z,99488.00
2023-01-13T11:40:52.720Z,99478.00
2023-01-13T11:43:37.667Z,99470.00
2023-01-13T11:46:13.420Z,99498.00
2023-01-13T11:48:55.927Z,99479.00
2023-01-13T11:51:41.886Z,99466.00
2023-01-13T11:54:51.476Z,99464.00
2023-01-13T11:58:08.793Z,99458.00
2023-01-13T12:01:23.066Z,99466.00
2023-01-13T12:04:24.663Z,99474.00
2023-01-13T12:07:21.420Z,99471.00
2023-01-13T12:10:13.556Z,99472.00
2023-01-13T12:12:59.471Z,99442.00
2023-01-13T12:15:57.645Z,99478.00
2023-01-13T12:19:01.493Z,99495.00
2023-01-13T12:25:15.197Z,99503.00
2023-01-13T12:28:00.199Z,99514.00
2023-01-13T12:30:42.933Z,99513.00
2023-01-13T12:33:31.515Z,99526.00
2023-01-13T12:36:18.033Z,99519.00
2023-01-13T12:39:00.239Z,99515.00
2023-01-13T12:42:01.883Z,99506.00
2023-01-13T12:44:36.425Z,99513.00
2023-01-13T12:47:40.479Z,99517.00
2023-01-13T12:51:11.833Z,99511.00
2023-01-13T12:53:49.868Z,99510.00
2023-01-13T12:57:00.856Z,99515.00
2023-01-13T12:59:39.714Z,99531.00
2023-01-13T13:02:36.829Z,99518.00
2023-01-13T13:05:55.904Z,99524.00
2023-01-13T13:08:53.982Z,99540.00
2023-01-13T13:12:02.884Z,99530.00
2023-01-13T13:15:07.206Z,99551.00
2023-01-13T13:18:02.575Z,99545.00
2023-01-13T13:21:13.391Z,99551.00
2023-01-13T13:24:06.896Z,99569.00
2023-01-13T13:26:51.531Z,99560.00
2023-01-13T13:29:50.869Z,99549.00
2023-01-13T13:33:09.939Z,99553.00
2023-01-13T13:36:08.543Z,99556.00
2023-01-13T13:39:47.631Z,99555.00
2023-01-13T13:53:58.776Z,99591.00
2023-01-13T13:56:57.081Z,99595.00
2023-01-13T13:59:34.900Z,99589.00
2023-01-13T14:07:12.057Z,99619.00
2023-01-13T14:15:46.308Z,99617.00
2023-01-13T14:18:26.171Z,99627.00
2023-01-13T14:21:08.592Z,99632.00
2023-01-13T14:27:49.510Z,99638.00
2023-01-13T14:31:10.916Z,99654.00
2023-01-13T14:33:56.053Z,99645.00
2023-01-13T14:40:57.849Z,99676.00
2023-01-13T14:46:42.829Z,99684.00
2023-01-13T14:49:35.641Z,99702.00
2023-01-13T14:52:21.885Z,99694.00
2023-01-13T14:55:28.929Z,99696.00
2023-01-13T14:58:28.726Z,99698.00
2023-01-13T15:01:36.681Z,99717.00
2023-01-13T15:04:38.927Z,99726.00
2023-01-13T15:13:59.084Z,99744.00
2023-01-13T15:16:35.040Z,99744.00
2023-01-13T15:19:11.882Z,99740.00
2023-01-13T15:21:53.503Z,99753.00
2023-01-13T15:24:27.073Z,99736.00
2023-01-13T15:27:01.109Z,99747.00
2023-01-13T15:29:35.735Z,99765.00
2023-01-13T15:32:23.310Z,99702.00
2023-01-13T15:34:59.900Z,99762.00
2023-01-13T15:37:35.813Z,99773.00
2023-01-13T15:40:17.011Z,99780.00
2023-01-13T15:43:08.417Z,99787.00
2023-01-13T15:46:06.353Z,99799.00
2023-01-13T15:48:42.148Z,99798.00
2023-01-13T15:51:16.424Z,99798.00
2023-01-13T15:53:55.717Z,99798.00
2023-01-13T15:56:30.432Z,99809.00
2023-01-13T15:59:05.771Z,99806.00
2023-01-13T16:01:41.659Z,99817.00
2023-01-13T16:04:16.638Z,99803.00
2023-01-13T16:06:58.023Z,99792.00
2023-01-13T16:09:33.479Z,99813.00
2023-01-13T16:12:20.102Z,99820.00
2023-01-13T16:14:54.064Z,99812.00
2023-01-13T16:17:33.322Z,99827.00
2023-01-13T16:20:15.691Z,99834.00
2023-01-13T16:22:50.331Z,99828.00
2023-01-13T16:25:28.728Z,99821.00
2023-01-13T16:28:02.870Z,99829.00
2023-01-13T16:30:41.044Z,99820.00
2023-01-13T16:33:15.998Z,99830.00
2023-01-13T16:36:10.674Z,99851.00
2023-01-13T16:38:44.983Z,99857.00
2023-01-13T16:41:21.730Z,99871.00
2023-01-13T16:43:56.564Z,99870.00
2023-01-13T16:46:32.081Z,99876.00
2023-01-13T16:49:08.432Z,99865.00
2023-01-13T16:51:42.586Z,99877.00
2023-01-13T16:54:17.523Z,99885.00
2023-01-13T16:56:53.173Z,99886.00
2023-01-13T16:59:27.911Z,99891.00
2023-01-13T17:02:03.467Z,99900.00
2023-01-13T17:04:40.307Z,99894.00
2023-01-13T17:07:21.368Z,99897.00
2023-01-13T17:09:55.120Z,99909.00
2023-01-13T17:12:34.066Z,99919.00
2023-01-13T17:15:13.423Z,99911.00
2023-01-13T17:17:52.086Z,99907.00
2023-01-13T17:20:30.207Z,99907.00
2023-01-13T17:23:07.781Z,99923.00
2023-01-13T17:25:42.299Z,99933.00
2023-01-13T17:28:19.987Z,99944.00
2023-01-13T17:30:55.157Z,99922.00
2023-01-13T17:33:30.358Z,99928.00
2023-01-13T17:36:07.024Z,99887.00
2023-01-13T17:41:46.069Z,99944.00
2023-01-13T17:44:24.400Z,99933.00
2023-01-13T17:47:04.104Z,99942.00
2023-01-13T17:55:45.166Z,99946.00
2023-01-13T17:58:19.629Z,99953.00
2023-01-13T18:00:57.276Z,99952.00
2023-01-13T18:03:32.333Z,99955.00
2023-01-13T18:06:11.211Z,99961.00
2023-01-13T18:08:46.428Z,99951.00
2023-01-13T18:11:27.816Z,99969.00
2023-01-13T18:14:01.936Z,99964.00
2023-01-13T18:16:41.597Z,99967.00
2023-01-13T18:19:34.708Z,99926.00
2023-01-13T18:28:55.381Z,99982.00
2023-01-13T18:31:47.223Z,99989.00
2023-01-13T18:34:26.360Z,99979.00
2023-01-13T18:37:03.728Z,100003.00
2023-01-13T18:39:38.235Z,100003.00
2023-01-13T18:42:31.130Z,99982.00
2023-01-13T18:47:59.999Z,100003.00
2023-01-13T18:50:37.469Z,100014.00
2023-01-13T18:53:11.941Z,99968.00
2023-01-13T18:55:48.528Z,100001.00
2023-01-13T18:58:31.276Z,100032.00
2023-01-13T19:01:23.856Z,100024.00
2023-01-13T19:04:20.495Z,100027.00
2023-01-13T19:07:13.894Z,100017.00
2023-01-13T19:09:53.007Z,100002.00
2023-01-13T19:12:39.040Z,100017.00
2023-01-13T19:15:20.951Z,100024.00
2023-01-13T19:18:01.341Z,100017.00
2023-01-13T19:20:35.313Z,100010.00
2023-01-13T19:23:12.163Z,100034.00
2023-01-13T19:25:46.760Z,100032.00
2023-01-13T19:28:20.547Z,100038.00
2023-01-13T19:33:50.669Z,100028.00
2023-01-13T19:39:34.804Z,100037.00
2023-01-13T19:42:27.208Z,100033.00
2023-01-13T19:45:19.095Z,100057.00
2023-01-13T19:47:54.173Z,100040.00
2023-01-13T19:50:53.055Z,100078.00
2023-01-13T19:56:16.886Z,100087.00
2023-01-13T19:58:52.265Z,100092.00
2023-01-13T20:01:33.200Z,100102.00
2023-01-13T20:04:14.339Z,100109.00
2023-01-13T20:06:54.558Z,100104.00
2023-01-13T20:16:03.431Z,100114.00
2023-01-13T20:18:39.640Z,100117.00
2023-01-13T20:21:13.443Z,100121.00
2023-01-13T20:23:55.849Z,100139.00
2023-01-13T20:26:31.773Z,100134.00
2023-01-13T20:29:07.729Z,100097.00
2023-01-13T20:31:41.576Z,100140.00
2023-01-13T20:34:26.508Z,100138.00
2023-01-13T20:37:15.059Z,100144.00
2023-01-13T20:39:48.975Z,100142.00
2023-01-13T20:42:40.006Z,100148.00
2023-01-13T20:48:09.349Z,100164.00
2023-01-13T20:53:45.101Z,100158.00
2023-01-13T20:56:21.240Z,100164.00
2023-01-13T20:59:03.666Z,100180.00
2023-01-13T21:01:40.648Z,100179.00
2023-01-13T21:04:15.637Z,100177.00
2023-01-13T21:06:51.195Z,100176.00
2023-01-13T21:09:27.032Z,100188.00
2023-01-13T21:12:21.389Z,100194.00
2023-01-13T21:15:13.188Z,100199.00
2023-01-13T21:18:08.555Z,100167.00
2023-01-13T21:20:43.873Z,100194.00
2023-01-13T21:23:20.673Z,100179.00
2023-01-13T21:25:56.387Z,100183.00
2023-01-13T21:37:39.631Z,100208.00
2023-01-13T21:40:16.684Z,100190.00
2023-01-13T21:43:09.355Z,100201.00
2023-01-13T21:46:00.617Z,100211.00
2023-01-13T21:48:39.572Z,100220.00
2023-01-13T21:51:17.802Z,100217.00
2023-01-13T21:56:55.786Z,100224.00
2023-01-13T22:27:11.059Z,100248.00
2023-01-13T22:29:51.764Z,100227.00
2023-01-13T22:32:27.478Z,100251.00
2023-01-13T22:35:01.394Z,100253.00
2023-01-13T22:37:40.816Z,100261.00
2023-01-13T22:40:15.062Z,100269.00
2023-01-13T22:42:49.363Z,100270.00
2023-01-13T22:48:22.452Z,100263.00
2023-01-13T22:51:02.775Z,100280.00
2023-01-13T22:53:58.995Z,100271.00
2023-01-13T22:56:45.907Z,100301.00
2023-01-13T22:59:27.872Z,100288.00
2023-01-13T23:05:31.346Z,100300.00
2023-01-13T23:11:12.599Z,100293.00
2023-01-13T23:13:48.755Z,100294.00
2023-01-13T23:16:23.635Z,100294.00
2023-01-13T23:19:02.668Z,100280.00
2023-01-13T23:21:39.352Z,100295.00
2023-01-13T23:24:14.966Z,100297.00
2023-01-13T23:29:58.994Z,100313.00
2023-01-13T23:32:37.602Z,100292.00
2023-01-13T23:41:46.407Z,100296.00
2023-01-13T23:44:20.555Z,100308.00
2023-01-13T23:46:54.632Z,100307.00
2023-01-13T23:49:32.619Z,100309.00
2023-01-13T23:55:21.495Z,100308.00
2023-01-13T23:57:56.297Z,100316.00
